sensor_id;sensor_type;location;lat;lon;timestamp;temperature;humidity
3208;DHT22;1616;52.394;9.756;2022-12-26T00:01:19;11.40;15.00
3208;DHT22;1616;52.394;9.756;2022-12-26T00:03:44;11.50;15.10
3208;DHT22;1616;52.394;9.756;2022-12-26T00:06:19;11.50;15.10
3208;DHT22;1616;52.394;9.756;2022-12-26T00:08:45;11.50;14.70
3208;DHT22;1616;52.394;9.756;2022-12-26T00:11:11;11.40;14.40
3208;DHT22;1616;52.394;9.756;2022-12-26T00:13:38;11.50;14.50
3208;DHT22;1616;52.394;9.756;2022-12-26T00:16:16;11.40;14.50
3208;DHT22;1616;52.394;9.756;2022-12-26T00:18:42;11.40;14.20
3208;DHT22;1616;52.394;9.756;2022-12-26T00:21:10;11.50;14.30
3208;DHT22;1616;52.394;9.756;2022-12-26T00:23:37;11.40;14.30
3208;DHT22;1616;52.394;9.756;2022-12-26T00:26:08;11.40;14.30
3208;DHT22;1616;52.394;9.756;2022-12-26T00:28:35;11.40;14.30
3208;DHT22;1616;52.394;9.756;2022-12-26T00:31:05;11.40;14.40
3208;DHT22;1616;52.394;9.756;2022-12-26T00:33:35;11.40;14.30
3208;DHT22;1616;52.394;9.756;2022-12-26T00:36:03;11.40;14.30
3208;DHT22;1616;52.394;9.756;2022-12-26T00:38:29;11.40;14.90
3208;DHT22;1616;52.394;9.756;2022-12-26T00:40:55;11.40;14.40
3208;DHT22;1616;52.394;9.756;2022-12-26T00:43:22;11.40;14.40
3208;DHT22;1616;52.394;9.756;2022-12-26T00:45:48;11.40;14.30
3208;DHT22;1616;52.394;9.756;2022-12-26T00:48:13;11.40;14.70
3208;DHT22;1616;52.394;9.756;2022-12-26T00:50:39;11.40;14.10
3208;DHT22;1616;52.394;9.756;2022-12-26T00:53:05;11.30;14.20
3208;DHT22;1616;52.394;9.756;2022-12-26T00:55:31;11.30;14.20
3208;DHT22;1616;52.394;9.756;2022-12-26T00:57:57;11.40;14.30
3208;DHT22;1616;52.394;9.756;2022-12-26T01:00:22;11.30;14.20
3208;DHT22;1616;52.394;9.756;2022-12-26T01:02:48;11.30;14.10
3208;DHT22;1616;52.394;9.756;2022-12-26T01:05:14;11.30;14.20
3208;DHT22;1616;52.394;9.756;2022-12-26T01:07:40;11.30;14.40
3208;DHT22;1616;52.394;9.756;2022-12-26T01:10:08;11.30;14.40
3208;DHT22;1616;52.394;9.756;2022-12-26T01:12:34;11.40;14.50
3208;DHT22;1616;52.394;9.756;2022-12-26T01:15:00;11.40;14.30
3208;DHT22;1616;52.394;9.756;2022-12-26T01:17:29;11.40;14.10
3208;DHT22;1616;52.394;9.756;2022-12-26T01:19:55;11.40;14.00
3208;DHT22;1616;52.394;9.756;2022-12-26T01:22:21;11.40;13.90
3208;DHT22;1616;52.394;9.756;2022-12-26T01:24:48;11.30;13.50
3208;DHT22;1616;52.394;9.756;2022-12-26T01:27:14;11.30;13.40
3208;DHT22;1616;52.394;9.756;2022-12-26T01:29:40;11.20;13.90
3208;DHT22;1616;52.394;9.756;2022-12-26T01:32:05;11.10;13.50
3208;DHT22;1616;52.394;9.756;2022-12-26T01:34:31;11.20;13.20
3208;DHT22;1616;52.394;9.756;2022-12-26T01:36:56;11.10;13.10
3208;DHT22;1616;52.394;9.756;2022-12-26T01:39:22;11.10;13.10
3208;DHT22;1616;52.394;9.756;2022-12-26T01:41:48;11.10;13.20
3208;DHT22;1616;52.394;9.756;2022-12-26T01:47:16;11.10;12.90
3208;DHT22;1616;52.394;9.756;2022-12-26T01:49:47;11.00;12.90
3208;DHT22;1616;52.394;9.756;2022-12-26T01:52:35;10.90;12.90
3208;DHT22;1616;52.394;9.756;2022-12-26T01:55:02;10.90;12.90
3208;DHT22;1616;52.394;9.756;2022-12-26T01:57:37;10.90;13.00
3208;DHT22;1616;52.394;9.756;2022-12-26T02:00:05;10.90;12.90
3208;DHT22;1616;52.394;9.756;2022-12-26T02:02:32;10.80;12.90
3208;DHT22;1616;52.394;9.756;2022-12-26T02:05:24;10.80;13.00
3208;DHT22;1616;52.394;9.756;2022-12-26T02:08:02;10.80;13.00
3208;DHT22;1616;52.394;9.756;2022-12-26T02:10:32;10.80;13.00
3208;DHT22;1616;52.394;9.756;2022-12-26T02:13:00;10.70;12.60
3208;DHT22;1616;52.394;9.756;2022-12-26T02:15:26;10.60;12.40
3208;DHT22;1616;52.394;9.756;2022-12-26T02:17:53;10.70;12.50
3208;DHT22;1616;52.394;9.756;2022-12-26T02:20:24;10.70;12.50
3208;DHT22;1616;52.394;9.756;2022-12-26T02:23:15;10.60;12.50
3208;DHT22;1616;52.394;9.756;2022-12-26T02:36:56;10.60;13.10
3208;DHT22;1616;52.394;9.756;2022-12-26T02:39:55;10.60;13.10
3208;DHT22;1616;52.394;9.756;2022-12-26T02:42:34;10.60;13.10
3208;DHT22;1616;52.394;9.756;2022-12-26T02:45:06;10.60;13.10
3208;DHT22;1616;52.394;9.756;2022-12-26T02:51:03;10.60;13.10
3208;DHT22;1616;52.394;9.756;2022-12-26T02:56:56;10.60;13.30
3208;DHT22;1616;52.394;9.756;2022-12-26T02:59:56;10.50;12.90
3208;DHT22;1616;52.394;9.756;2022-12-26T03:02:46;10.50;13.00
3208;DHT22;1616;52.394;9.756;2022-12-26T03:05:43;10.60;13.20
3208;DHT22;1616;52.394;9.756;2022-12-26T03:08:49;10.60;13.20
3208;DHT22;1616;52.394;9.756;2022-12-26T03:11:44;10.60;13.30
3208;DHT22;1616;52.394;9.756;2022-12-26T03:14:33;10.60;13.30
3208;DHT22;1616;52.394;9.756;2022-12-26T03:17:07;10.60;13.40
3208;DHT22;1616;52.394;9.756;2022-12-26T03:20:04;10.60;13.30
3208;DHT22;1616;52.394;9.756;2022-12-26T03:22:38;10.60;13.20
3208;DHT22;1616;52.394;9.756;2022-12-26T03:25:09;10.60;13.20
3208;DHT22;1616;52.394;9.756;2022-12-26T03:27:54;10.60;13.30
3208;DHT22;1616;52.394;9.756;2022-12-26T03:30:20;10.60;13.40
3208;DHT22;1616;52.394;9.756;2022-12-26T03:33:05;10.70;13.40
3208;DHT22;1616;52.394;9.756;2022-12-26T03:35:51;10.70;13.30
3208;DHT22;1616;52.394;9.756;2022-12-26T03:41:25;10.70;13.50
3208;DHT22;1616;52.394;9.756;2022-12-26T03:44:35;10.60;12.90
3208;DHT22;1616;52.394;9.756;2022-12-26T03:47:40;10.70;13.00
3208;DHT22;1616;52.394;9.756;2022-12-26T03:50:34;10.80;12.80
3208;DHT22;1616;52.394;9.756;2022-12-26T03:53:27;10.70;12.50
3208;DHT22;1616;52.394;9.756;2022-12-26T03:56:34;10.70;12.10
3208;DHT22;1616;52.394;9.756;2022-12-26T03:59:26;10.70;12.10
3208;DHT22;1616;52.394;9.756;2022-12-26T04:02:14;10.70;12.10
3208;DHT22;1616;52.394;9.756;2022-12-26T04:05:02;10.70;12.30
3208;DHT22;1616;52.394;9.756;2022-12-26T04:07:51;10.70;12.40
3208;DHT22;1616;52.394;9.756;2022-12-26T04:10:44;10.70;12.60
3208;DHT22;1616;52.394;9.756;2022-12-26T04:13:51;10.70;12.70
3208;DHT22;1616;52.394;9.756;2022-12-26T04:22:48;10.70;12.10
3208;DHT22;1616;52.394;9.756;2022-12-26T04:25:43;10.70;12.10
3208;DHT22;1616;52.394;9.756;2022-12-26T04:28:29;10.60;12.00
3208;DHT22;1616;52.394;9.756;2022-12-26T04:31:26;10.70;12.50
3208;DHT22;1616;52.394;9.756;2022-12-26T04:34:39;10.70;12.60
3208;DHT22;1616;52.394;9.756;2022-12-26T04:37:27;10.70;12.60
3208;DHT22;1616;52.394;9.756;2022-12-26T04:40:19;10.70;12.90
3208;DHT22;1616;52.394;9.756;2022-12-26T04:43:07;10.70;13.30
3208;DHT22;1616;52.394;9.756;2022-12-26T04:45:52;10.70;12.80
3208;DHT22;1616;52.394;9.756;2022-12-26T04:48:18;10.60;12.40
3208;DHT22;1616;52.394;9.756;2022-12-26T04:51:03;10.70;12.60
3208;DHT22;1616;52.394;9.756;2022-12-26T04:53:29;10.70;12.40
3208;DHT22;1616;52.394;9.756;2022-12-26T04:55:55;10.70;12.30
3208;DHT22;1616;52.394;9.756;2022-12-26T04:58:20;10.70;12.10
3208;DHT22;1616;52.394;9.756;2022-12-26T05:00:49;10.80;12.10
3208;DHT22;1616;52.394;9.756;2022-12-26T05:03:14;10.70;12.10
3208;DHT22;1616;52.394;9.756;2022-12-26T05:06:00;10.80;12.10
3208;DHT22;1616;52.394;9.756;2022-12-26T05:08:45;10.80;12.20
3208;DHT22;1616;52.394;9.756;2022-12-26T05:11:32;10.70;12.10
3208;DHT22;1616;52.394;9.756;2022-12-26T05:13:58;10.80;12.10
3208;DHT22;1616;52.394;9.756;2022-12-26T05:16:26;10.80;12.10
3208;DHT22;1616;52.394;9.756;2022-12-26T05:19:11;10.70;12.10
3208;DHT22;1616;52.394;9.756;2022-12-26T05:21:58;10.80;12.10
3208;DHT22;1616;52.394;9.756;2022-12-26T05:24:43;10.80;12.10
3208;DHT22;1616;52.394;9.756;2022-12-26T05:27:46;10.70;11.90
3208;DHT22;1616;52.394;9.756;2022-12-26T05:30:30;10.80;12.30
3208;DHT22;1616;52.394;9.756;2022-12-26T05:32:56;10.80;11.40
3208;DHT22;1616;52.394;9.756;2022-12-26T05:35:40;10.70;11.20
3208;DHT22;1616;52.394;9.756;2022-12-26T05:38:09;10.70;11.20
3208;DHT22;1616;52.394;9.756;2022-12-26T05:40:35;10.70;11.30
3208;DHT22;1616;52.394;9.756;2022-12-26T05:43:00;10.60;11.30
3208;DHT22;1616;52.394;9.756;2022-12-26T05:45:26;10.60;11.20
3208;DHT22;1616;52.394;9.756;2022-12-26T05:48:00;10.50;10.90
3208;DHT22;1616;52.394;9.756;2022-12-26T05:50:26;10.60;10.90
3208;DHT22;1616;52.394;9.756;2022-12-26T05:52:52;10.60;10.90
3208;DHT22;1616;52.394;9.756;2022-12-26T05:55:17;10.60;10.90
3208;DHT22;1616;52.394;9.756;2022-12-26T05:57:43;10.60;10.80
3208;DHT22;1616;52.394;9.756;2022-12-26T06:00:09;10.60;10.80
3208;DHT22;1616;52.394;9.756;2022-12-26T06:02:35;10.70;10.70
3208;DHT22;1616;52.394;9.756;2022-12-26T06:05:01;10.70;10.70
3208;DHT22;1616;52.394;9.756;2022-12-26T06:07:26;10.70;10.50
3208;DHT22;1616;52.394;9.756;2022-12-26T06:09:52;10.70;10.40
3208;DHT22;1616;52.394;9.756;2022-12-26T06:12:18;10.70;10.30
3208;DHT22;1616;52.394;9.756;2022-12-26T06:14:43;10.70;10.20
3208;DHT22;1616;52.394;9.756;2022-12-26T06:17:09;10.70;10.00
3208;DHT22;1616;52.394;9.756;2022-12-26T06:19:35;10.70;9.80
3208;DHT22;1616;52.394;9.756;2022-12-26T06:22:00;10.60;9.30
3208;DHT22;1616;52.394;9.756;2022-12-26T06:24:26;10.60;9.00
3208;DHT22;1616;52.394;9.756;2022-12-26T06:26:52;10.60;8.80
3208;DHT22;1616;52.394;9.756;2022-12-26T06:29:18;10.50;8.60
3208;DHT22;1616;52.394;9.756;2022-12-26T06:31:44;10.50;8.50
3208;DHT22;1616;52.394;9.756;2022-12-26T06:34:10;10.50;8.20
3208;DHT22;1616;52.394;9.756;2022-12-26T06:36:35;10.40;8.10
3208;DHT22;1616;52.394;9.756;2022-12-26T06:39:01;10.40;8.10
3208;DHT22;1616;52.394;9.756;2022-12-26T06:41:26;10.40;8.10
3208;DHT22;1616;52.394;9.756;2022-12-26T06:43:52;10.40;8.30
3208;DHT22;1616;52.394;9.756;2022-12-26T06:46:21;10.30;8.20
3208;DHT22;1616;52.394;9.756;2022-12-26T06:48:47;10.30;8.20
3208;DHT22;1616;52.394;9.756;2022-12-26T06:51:15;10.30;8.40
3208;DHT22;1616;52.394;9.756;2022-12-26T06:53:41;10.30;8.90
3208;DHT22;1616;52.394;9.756;2022-12-26T06:56:16;10.20;9.10
3208;DHT22;1616;52.394;9.756;2022-12-26T06:58:42;10.30;9.20
3208;DHT22;1616;52.394;9.756;2022-12-26T07:01:12;10.30;9.20
3208;DHT22;1616;52.394;9.756;2022-12-26T07:03:39;10.30;9.10
3208;DHT22;1616;52.394;9.756;2022-12-26T07:06:07;10.20;8.90
3208;DHT22;1616;52.394;9.756;2022-12-26T07:08:35;10.20;8.60
3208;DHT22;1616;52.394;9.756;2022-12-26T07:11:00;10.20;8.60
3208;DHT22;1616;52.394;9.756;2022-12-26T07:13:26;10.20;8.60
3208;DHT22;1616;52.394;9.756;2022-12-26T07:15:52;10.20;8.50
3208;DHT22;1616;52.394;9.756;2022-12-26T07:18:18;10.10;8.30
3208;DHT22;1616;52.394;9.756;2022-12-26T07:20:44;10.10;8.30
3208;DHT22;1616;52.394;9.756;2022-12-26T07:23:10;10.10;8.30
3208;DHT22;1616;52.394;9.756;2022-12-26T07:25:37;10.10;8.50
3208;DHT22;1616;52.394;9.756;2022-12-26T07:28:02;10.10;8.50
3208;DHT22;1616;52.394;9.756;2022-12-26T07:30:28;9.90;9.00
3208;DHT22;1616;52.394;9.756;2022-12-26T07:32:54;10.00;8.20
3208;DHT22;1616;52.394;9.756;2022-12-26T07:35:19;10.00;8.20
3208;DHT22;1616;52.394;9.756;2022-12-26T07:37:45;10.00;8.30
3208;DHT22;1616;52.394;9.756;2022-12-26T07:40:11;10.00;8.50
3208;DHT22;1616;52.394;9.756;2022-12-26T07:42:37;10.00;8.40
3208;DHT22;1616;52.394;9.756;2022-12-26T07:45:03;10.00;8.50
3208;DHT22;1616;52.394;9.756;2022-12-26T07:47:29;10.00;8.60
3208;DHT22;1616;52.394;9.756;2022-12-26T07:49:54;10.00;8.90
3208;DHT22;1616;52.394;9.756;2022-12-26T07:52:20;10.00;8.90
3208;DHT22;1616;52.394;9.756;2022-12-26T07:54:46;10.00;8.80
3208;DHT22;1616;52.394;9.756;2022-12-26T07:57:12;10.00;8.90
3208;DHT22;1616;52.394;9.756;2022-12-26T07:59:37;10.00;9.00
3208;DHT22;1616;52.394;9.756;2022-12-26T08:02:03;10.10;9.20
3208;DHT22;1616;52.394;9.756;2022-12-26T08:04:31;10.10;9.10
3208;DHT22;1616;52.394;9.756;2022-12-26T08:06:56;10.10;9.00
3208;DHT22;1616;52.394;9.756;2022-12-26T08:09:22;10.10;9.00
3208;DHT22;1616;52.394;9.756;2022-12-26T08:11:48;10.10;8.90
3208;DHT22;1616;52.394;9.756;2022-12-26T08:14:14;10.20;8.90
3208;DHT22;1616;52.394;9.756;2022-12-26T08:16:41;10.10;8.90
3208;DHT22;1616;52.394;9.756;2022-12-26T08:19:08;10.10;8.80
3208;DHT22;1616;52.394;9.756;2022-12-26T08:21:34;10.10;8.70
3208;DHT22;1616;52.394;9.756;2022-12-26T08:23:59;10.20;9.00
3208;DHT22;1616;52.394;9.756;2022-12-26T08:26:25;10.30;9.10
3208;DHT22;1616;52.394;9.756;2022-12-26T08:28:51;10.20;9.10
3208;DHT22;1616;52.394;9.756;2022-12-26T08:31:18;10.30;9.10
3208;DHT22;1616;52.394;9.756;2022-12-26T08:33:44;10.30;9.20
3208;DHT22;1616;52.394;9.756;2022-12-26T08:36:11;10.30;9.20
3208;DHT22;1616;52.394;9.756;2022-12-26T08:38:38;10.40;9.20
3208;DHT22;1616;52.394;9.756;2022-12-26T08:41:04;10.40;9.10
3208;DHT22;1616;52.394;9.756;2022-12-26T08:43:29;10.40;9.00
3208;DHT22;1616;52.394;9.756;2022-12-26T08:46:05;10.50;8.90
3208;DHT22;1616;52.394;9.756;2022-12-26T08:48:32;10.50;8.70
3208;DHT22;1616;52.394;9.756;2022-12-26T08:51:04;10.50;8.80
3208;DHT22;1616;52.394;9.756;2022-12-26T08:53:31;10.50;8.70
3208;DHT22;1616;52.394;9.756;2022-12-26T08:55:58;10.60;8.70
3208;DHT22;1616;52.394;9.756;2022-12-26T08:58:24;10.60;8.50
3208;DHT22;1616;52.394;9.756;2022-12-26T09:00:50;10.60;8.60
3208;DHT22;1616;52.394;9.756;2022-12-26T09:03:16;10.50;8.40
3208;DHT22;1616;52.394;9.756;2022-12-26T09:05:42;10.70;8.40
3208;DHT22;1616;52.394;9.756;2022-12-26T09:08:09;10.70;8.50
3208;DHT22;1616;52.394;9.756;2022-12-26T09:10:35;10.70;8.70
3208;DHT22;1616;52.394;9.756;2022-12-26T09:13:00;10.70;8.50
3208;DHT22;1616;52.394;9.756;2022-12-26T09:15:27;10.70;9.00
3208;DHT22;1616;52.394;9.756;2022-12-26T09:17:52;10.80;9.00
3208;DHT22;1616;52.394;9.756;2022-12-26T09:20:18;10.80;9.40
3208;DHT22;1616;52.394;9.756;2022-12-26T09:22:44;10.80;9.00
3208;DHT22;1616;52.394;9.756;2022-12-26T09:25:20;10.90;9.20
3208;DHT22;1616;52.394;9.756;2022-12-26T09:27:46;10.90;9.30
3208;DHT22;1616;52.394;9.756;2022-12-26T09:30:12;10.90;9.10
3208;DHT22;1616;52.394;9.756;2022-12-26T09:32:38;10.90;9.70
3208;DHT22;1616;52.394;9.756;2022-12-26T09:35:05;11.00;9.60
3208;DHT22;1616;52.394;9.756;2022-12-26T09:37:31;11.00;9.70
3208;DHT22;1616;52.394;9.756;2022-12-26T09:39:56;11.10;9.70
3208;DHT22;1616;52.394;9.756;2022-12-26T09:42:47;11.10;9.90
3208;DHT22;1616;52.394;9.756;2022-12-26T09:45:17;11.20;9.10
3208;DHT22;1616;52.394;9.756;2022-12-26T09:48:31;11.20;10.00
3208;DHT22;1616;52.394;9.756;2022-12-26T09:50:59;11.30;9.70
3208;DHT22;1616;52.394;9.756;2022-12-26T09:53:32;11.30;10.20
3208;DHT22;1616;52.394;9.756;2022-12-26T09:56:12;11.30;10.00
3208;DHT22;1616;52.394;9.756;2022-12-26T09:58:46;11.40;9.50
3208;DHT22;1616;52.394;9.756;2022-12-26T10:01:28;11.40;9.60
3208;DHT22;1616;52.394;9.756;2022-12-26T10:03:58;11.40;10.00
3208;DHT22;1616;52.394;9.756;2022-12-26T10:06:30;11.50;11.20
3208;DHT22;1616;52.394;9.756;2022-12-26T10:14:58;11.80;9.80
3208;DHT22;1616;52.394;9.756;2022-12-26T10:17:37;11.80;9.80
3208;DHT22;1616;52.394;9.756;2022-12-26T10:25:56;11.80;8.40
3208;DHT22;1616;52.394;9.756;2022-12-26T10:31:23;11.80;8.50
3208;DHT22;1616;52.394;9.756;2022-12-26T10:36:50;11.80;8.30
3208;DHT22;1616;52.394;9.756;2022-12-26T10:39:24;11.90;9.00
3208;DHT22;1616;52.394;9.756;2022-12-26T10:41:54;11.90;8.20
3208;DHT22;1616;52.394;9.756;2022-12-26T10:44:21;12.00;8.60
3208;DHT22;1616;52.394;9.756;2022-12-26T10:46:50;12.00;8.10
3208;DHT22;1616;52.394;9.756;2022-12-26T10:49:19;12.00;8.90
3208;DHT22;1616;52.394;9.756;2022-12-26T10:51:46;12.20;9.10
3208;DHT22;1616;52.394;9.756;2022-12-26T10:54:17;12.30;13.10
3208;DHT22;1616;52.394;9.756;2022-12-26T10:56:47;12.90;15.10
3208;DHT22;1616;52.394;9.756;2022-12-26T10:59:37;13.20;10.80
3208;DHT22;1616;52.394;9.756;2022-12-26T11:02:24;13.50;12.20
3208;DHT22;1616;52.394;9.756;2022-12-26T11:04:58;13.80;8.10
3208;DHT22;1616;52.394;9.756;2022-12-26T11:07:26;13.90;4.30
3208;DHT22;1616;52.394;9.756;2022-12-26T11:09:52;13.90;2.50
3208;DHT22;1616;52.394;9.756;2022-12-26T11:12:26;13.80;1.00
3208;DHT22;1616;52.394;9.756;2022-12-26T11:15:03;13.60;1.00
3208;DHT22;1616;52.394;9.756;2022-12-26T11:17:33;13.40;1.00
3208;DHT22;1616;52.394;9.756;2022-12-26T11:22:40;13.00;1.00
3208;DHT22;1616;52.394;9.756;2022-12-26T11:25:14;12.70;1.00
3208;DHT22;1616;52.394;9.756;2022-12-26T11:27:44;12.60;1.00
3208;DHT22;1616;52.394;9.756;2022-12-26T11:33:03;12.60;2.60
3208;DHT22;1616;52.394;9.756;2022-12-26T11:35:30;12.80;2.60
3208;DHT22;1616;52.394;9.756;2022-12-26T11:38:06;12.90;1.00
3208;DHT22;1616;52.394;9.756;2022-12-26T11:40:38;12.90;1.00
3208;DHT22;1616;52.394;9.756;2022-12-26T11:43:25;12.90;1.00
3208;DHT22;1616;52.394;9.756;2022-12-26T11:45:51;12.90;1.00
3208;DHT22;1616;52.394;9.756;2022-12-26T11:48:23;12.80;1.00
3208;DHT22;1616;52.394;9.756;2022-12-26T11:50:49;12.80;1.00
3208;DHT22;1616;52.394;9.756;2022-12-26T11:53:18;12.70;1.00
3208;DHT22;1616;52.394;9.756;2022-12-26T11:55:59;12.80;1.00
3208;DHT22;1616;52.394;9.756;2022-12-26T11:58:29;12.70;1.00
3208;DHT22;1616;52.394;9.756;2022-12-26T12:06:05;12.60;1.00
3208;DHT22;1616;52.394;9.756;2022-12-26T12:11:45;12.40;1.00
3208;DHT22;1616;52.394;9.756;2022-12-26T12:14:26;12.30;1.00
3208;DHT22;1616;52.394;9.756;2022-12-26T12:17:07;12.10;1.00
3208;DHT22;1616;52.394;9.756;2022-12-26T12:22:43;11.90;1.00
3208;DHT22;1616;52.394;9.756;2022-12-26T12:25:48;11.80;1.00
3208;DHT22;1616;52.394;9.756;2022-12-26T12:28:33;11.60;1.00
3208;DHT22;1616;52.394;9.756;2022-12-26T12:31:13;11.50;1.00
3208;DHT22;1616;52.394;9.756;2022-12-26T12:37:17;11.60;1.00
3208;DHT22;1616;52.394;9.756;2022-12-26T12:39:46;11.70;1.00
3208;DHT22;1616;52.394;9.756;2022-12-26T12:48:07;12.00;1.00
3208;DHT22;1616;52.394;9.756;2022-12-26T12:50:43;12.00;1.00
3208;DHT22;1616;52.394;9.756;2022-12-26T12:56:28;12.10;1.00
3208;DHT22;1616;52.394;9.756;2022-12-26T13:01:55;12.30;1.00
3208;DHT22;1616;52.394;9.756;2022-12-26T13:04:27;12.30;1.00
3208;DHT22;1616;52.394;9.756;2022-12-26T13:07:18;12.20;1.00
3208;DHT22;1616;52.394;9.756;2022-12-26T13:09:53;12.30;1.00
3208;DHT22;1616;52.394;9.756;2022-12-26T13:12:24;12.30;1.00
3208;DHT22;1616;52.394;9.756;2022-12-26T13:15:04;12.30;1.00
3208;DHT22;1616;52.394;9.756;2022-12-26T13:17:48;12.40;1.00
3208;DHT22;1616;52.394;9.756;2022-12-26T13:20:55;12.40;1.00
3208;DHT22;1616;52.394;9.756;2022-12-26T13:23:42;12.50;1.00
3208;DHT22;1616;52.394;9.756;2022-12-26T13:26:36;12.50;1.00
3208;DHT22;1616;52.394;9.756;2022-12-26T13:29:46;12.60;1.00
3208;DHT22;1616;52.394;9.756;2022-12-26T13:31:52;12.60;1.00
3208;DHT22;1616;52.394;9.756;2022-12-26T13:34:19;12.50;1.00
3208;DHT22;1616;52.394;9.756;2022-12-26T13:36:47;12.50;1.00
3208;DHT22;1616;52.394;9.756;2022-12-26T13:44:36;12.40;1.00
3208;DHT22;1616;52.394;9.756;2022-12-26T13:47:03;12.20;1.00
3208;DHT22;1616;52.394;9.756;2022-12-26T13:49:32;12.20;1.00
3208;DHT22;1616;52.394;9.756;2022-12-26T13:57:19;11.50;1.00
3208;DHT22;1616;52.394;9.756;2022-12-26T14:00:08;11.30;1.00
3208;DHT22;1616;52.394;9.756;2022-12-26T14:03:01;11.10;1.00
3208;DHT22;1616;52.394;9.756;2022-12-26T14:08:25;10.60;1.00
3208;DHT22;1616;52.394;9.756;2022-12-26T14:14:11;10.30;1.00
3208;DHT22;1616;52.394;9.756;2022-12-26T14:22:16;10.10;1.70
3208;DHT22;1616;52.394;9.756;2022-12-26T14:24:51;10.00;1.90
3208;DHT22;1616;52.394;9.756;2022-12-26T14:32:54;9.90;3.40
3208;DHT22;1616;52.394;9.756;2022-12-26T14:35:53;9.90;3.50
3208;DHT22;1616;52.394;9.756;2022-12-26T14:41:24;9.80;3.50
3208;DHT22;1616;52.394;9.756;2022-12-26T14:54:51;9.30;1.60
3208;DHT22;1616;52.394;9.756;2022-12-26T15:05:30;8.80;1.00
3208;DHT22;1616;52.394;9.756;2022-12-26T15:16:22;8.60;1.40
3208;DHT22;1616;52.394;9.756;2022-12-26T15:30:13;8.30;1.00
3208;DHT22;1616;52.394;9.756;2022-12-26T15:35:27;8.20;1.00
3208;DHT22;1616;52.394;9.756;2022-12-26T15:38:08;8.20;1.00
3208;DHT22;1616;52.394;9.756;2022-12-26T15:40:49;8.20;1.00
3208;DHT22;1616;52.394;9.756;2022-12-26T15:43:35;8.10;1.00
3208;DHT22;1616;52.394;9.756;2022-12-26T15:49:05;8.00;1.00
3208;DHT22;1616;52.394;9.756;2022-12-26T15:54:51;7.90;1.00
3208;DHT22;1616;52.394;9.756;2022-12-26T16:11:24;7.70;1.00
3208;DHT22;1616;52.394;9.756;2022-12-26T16:13:57;7.60;1.00
3208;DHT22;1616;52.394;9.756;2022-12-26T16:16:32;7.50;1.00
3208;DHT22;1616;52.394;9.756;2022-12-26T16:19:21;7.50;1.00
3208;DHT22;1616;52.394;9.756;2022-12-26T16:21:58;7.40;1.00
3208;DHT22;1616;52.394;9.756;2022-12-26T16:24:45;7.40;1.00
3208;DHT22;1616;52.394;9.756;2022-12-26T16:27:17;7.40;1.00
3208;DHT22;1616;52.394;9.756;2022-12-26T16:29:58;7.30;1.00
3208;DHT22;1616;52.394;9.756;2022-12-26T16:32:35;7.30;1.00
3208;DHT22;1616;52.394;9.756;2022-12-26T16:35:02;7.30;1.00
3208;DHT22;1616;52.394;9.756;2022-12-26T16:37:28;7.30;1.00
3208;DHT22;1616;52.394;9.756;2022-12-26T16:42:54;7.30;1.00
3208;DHT22;1616;52.394;9.756;2022-12-26T16:45:25;7.30;1.00
3208;DHT22;1616;52.394;9.756;2022-12-26T16:47:52;7.30;1.00
3208;DHT22;1616;52.394;9.756;2022-12-26T16:50:22;7.20;1.00
3208;DHT22;1616;52.394;9.756;2022-12-26T16:52:49;7.30;1.00
3208;DHT22;1616;52.394;9.756;2022-12-26T16:57:57;7.40;1.00
3208;DHT22;1616;52.394;9.756;2022-12-26T17:00:25;7.40;1.00
3208;DHT22;1616;52.394;9.756;2022-12-26T17:02:55;7.40;1.00
3208;DHT22;1616;52.394;9.756;2022-12-26T17:05:28;7.40;1.00
3208;DHT22;1616;52.394;9.756;2022-12-26T17:07:56;7.40;1.00
3208;DHT22;1616;52.394;9.756;2022-12-26T17:10:27;7.40;1.00
3208;DHT22;1616;52.394;9.756;2022-12-26T17:12:56;7.40;1.00
3208;DHT22;1616;52.394;9.756;2022-12-26T17:15:26;7.30;1.00
3208;DHT22;1616;52.394;9.756;2022-12-26T17:17:53;7.30;1.00
3208;DHT22;1616;52.394;9.756;2022-12-26T17:22:52;7.10;1.00
3208;DHT22;1616;52.394;9.756;2022-12-26T17:25:19;7.00;1.00
3208;DHT22;1616;52.394;9.756;2022-12-26T17:28:19;6.90;1.00
3208;DHT22;1616;52.394;9.756;2022-12-26T17:30:38;6.80;1.00
3208;DHT22;1616;52.394;9.756;2022-12-26T17:33:41;6.70;1.00
3208;DHT22;1616;52.394;9.756;2022-12-26T17:36:10;6.60;1.00
3208;DHT22;1616;52.394;9.756;2022-12-26T17:38:37;6.50;1.00
3208;DHT22;1616;52.394;9.756;2022-12-26T17:41:05;6.40;1.00
3208;DHT22;1616;52.394;9.756;2022-12-26T17:43:38;6.40;1.00
3208;DHT22;1616;52.394;9.756;2022-12-26T17:46:07;6.30;1.00
3208;DHT22;1616;52.394;9.756;2022-12-26T17:48:34;6.10;1.00
3208;DHT22;1616;52.394;9.756;2022-12-26T17:51:02;6.10;1.00
3208;DHT22;1616;52.394;9.756;2022-12-26T17:53:33;6.00;1.00
3208;DHT22;1616;52.394;9.756;2022-12-26T17:56:02;6.00;1.00
3208;DHT22;1616;52.394;9.756;2022-12-26T17:58:28;5.90;1.00
3208;DHT22;1616;52.394;9.756;2022-12-26T18:00:54;5.90;1.00
3208;DHT22;1616;52.394;9.756;2022-12-26T18:03:20;5.80;1.00
3208;DHT22;1616;52.394;9.756;2022-12-26T18:05:46;5.80;1.00
3208;DHT22;1616;52.394;9.756;2022-12-26T18:08:30;5.70;1.00
3208;DHT22;1616;52.394;9.756;2022-12-26T18:10:57;5.70;1.00
3208;DHT22;1616;52.394;9.756;2022-12-26T18:13:23;5.70;1.00
3208;DHT22;1616;52.394;9.756;2022-12-26T18:15:51;5.80;1.00
3208;DHT22;1616;52.394;9.756;2022-12-26T18:18:37;5.80;1.00
3208;DHT22;1616;52.394;9.756;2022-12-26T18:21:05;5.90;1.00
3208;DHT22;1616;52.394;9.756;2022-12-26T18:23:31;5.90;1.00
3208;DHT22;1616;52.394;9.756;2022-12-26T18:26:02;5.90;1.00
3208;DHT22;1616;52.394;9.756;2022-12-26T18:28:28;5.90;1.00
3208;DHT22;1616;52.394;9.756;2022-12-26T18:30:54;5.80;1.00
3208;DHT22;1616;52.394;9.756;2022-12-26T18:33:22;5.80;1.00
3208;DHT22;1616;52.394;9.756;2022-12-26T18:35:47;5.80;1.00
3208;DHT22;1616;52.394;9.756;2022-12-26T18:38:15;5.70;1.00
3208;DHT22;1616;52.394;9.756;2022-12-26T18:40:49;5.70;1.00
3208;DHT22;1616;52.394;9.756;2022-12-26T18:43:17;5.60;1.00
3208;DHT22;1616;52.394;9.756;2022-12-26T18:45:43;5.50;1.00
3208;DHT22;1616;52.394;9.756;2022-12-26T18:48:14;5.50;1.00
3208;DHT22;1616;52.394;9.756;2022-12-26T18:50:41;5.40;1.00
3208;DHT22;1616;52.394;9.756;2022-12-26T18:53:07;5.40;1.00
3208;DHT22;1616;52.394;9.756;2022-12-26T18:55:32;5.30;1.00
3208;DHT22;1616;52.394;9.756;2022-12-26T18:57:58;5.20;1.00
3208;DHT22;1616;52.394;9.756;2022-12-26T19:00:24;5.20;1.00
3208;DHT22;1616;52.394;9.756;2022-12-26T19:02:50;5.10;1.00
3208;DHT22;1616;52.394;9.756;2022-12-26T19:05:23;5.10;1.00
3208;DHT22;1616;52.394;9.756;2022-12-26T19:07:51;5.00;1.00
3208;DHT22;1616;52.394;9.756;2022-12-26T19:10:18;5.00;1.00
3208;DHT22;1616;52.394;9.756;2022-12-26T19:12:46;5.00;1.00
3208;DHT22;1616;52.394;9.756;2022-12-26T19:15:13;5.00;1.00
3208;DHT22;1616;52.394;9.756;2022-12-26T19:17:39;4.90;1.00
3208;DHT22;1616;52.394;9.756;2022-12-26T19:20:06;4.90;1.00
3208;DHT22;1616;52.394;9.756;2022-12-26T19:22:33;5.00;1.00
3208;DHT22;1616;52.394;9.756;2022-12-26T19:24:58;4.80;1.00
3208;DHT22;1616;52.394;9.756;2022-12-26T19:27:24;4.80;1.00
3208;DHT22;1616;52.394;9.756;2022-12-26T19:29:51;4.90;1.00
3208;DHT22;1616;52.394;9.756;2022-12-26T19:32:16;4.90;1.00
3208;DHT22;1616;52.394;9.756;2022-12-26T19:34:42;4.90;1.00
3208;DHT22;1616;52.394;9.756;2022-12-26T19:37:08;4.90;1.00
3208;DHT22;1616;52.394;9.756;2022-12-26T19:39:33;4.90;1.00
3208;DHT22;1616;52.394;9.756;2022-12-26T19:41:59;4.90;1.00
3208;DHT22;1616;52.394;9.756;2022-12-26T19:44:24;4.90;1.00
3208;DHT22;1616;52.394;9.756;2022-12-26T19:46:50;4.90;1.00
3208;DHT22;1616;52.394;9.756;2022-12-26T19:49:16;4.80;1.00
3208;DHT22;1616;52.394;9.756;2022-12-26T19:51:41;4.80;1.00